Aeroporto :
LOGIN :

Iscrizione | Disclaimer

   EN    FR    IT 

 










Sommario :    VFR   VFR Marginale   IFR   IFR Intensivo   IFR Molto Intensivo
Visibilità : 
Base nubi : 
>= 8 km
>= 3000ft
5 / 8 km
1000 / 3000 ft
1500m / 5 km
500 / 1000 ft
800 / 1500m
200 / 500 ft
< 800m
< 200 ft
Simboli :   Temporali  Nebbia  Neve Forte  Precipitazioni Forti  Vento > 20 kt
SIGMETs :   Varie  Temporali  Ghiacco  Turbolenza  Onda orograficha  Ceneri Vulcaniche






- Altitudine del aeroporto : 290 ft
- Codice IATA : ACI


EGJA - Alderney

METARs OBSOLETI :
  • 231820Z 31007KT 9999 VCSH FEW018CB SCT022 04/02 Q0990
  • 231750Z 25012KT 9999 VCSH FEW018CB SCT022 06/02 Q0990
  • 231720Z 26014KT 9999 VCSH FEW015 FEW018CB 06/02 Q0990
  • 231650Z 27016KT 9999 VCSH FEW015 FEW018CB 06/02 Q0989
  • 231620Z 27015KT 9999 VCSH FEW018CB 06/02 Q0989
  • 231550Z 27014KT 9999 VCSH FEW018CB SCT023 06/03 Q0989
  • 231520Z 28017G29KT 9999 VCSH FEW018CB SCT023 05/04 Q0989

TAF TAF EGJA
Valido dal 23 a 15 ore il 24 a 00 ore UTC


231358Z 2315/2400 26015KT 9999 FEW015CB SCT025
TEMPO 2315/2400 26020G32KT 6000 SHRA BKN012CB
PROB40
TEMPO 2315/2400 4000 +TSRAGS BKN008



MetMap, La meteo Aeronautica in un colpo d'occhio ! - Copyright ORBIFLY Dicembre 2007 - Disclaimer

ORBIFLY MET'MAP TEAM :

Programmazione e sviluppo : Alexandra Zaïnal
Concezione : Baudouin d'Aumeries
Supporto tecnico e logistico : Manuel Goepfert
Aiuto : Marc-Olivier Méhu
Aiuto per la traduzione : Arnaldo La Scala




FONTI E CREDITI :

   NOAA